sensor_id;sensor_type;location;lat;lon;timestamp;pressure;altitude;pressure_sealevel;temperature;humidity
75549;BME280;64133;56.002;37.208;2023-07-24T00:02:20;98416.41;;;12.78;80.78
75549;BME280;64133;56.002;37.208;2023-07-24T00:07:25;98421.20;;;12.75;80.67
75549;BME280;64133;56.002;37.208;2023-07-24T00:12:30;98422.03;;;12.67;80.80
75549;BME280;64133;56.002;37.208;2023-07-24T00:17:34;98411.94;;;12.58;81.04
75549;BME280;64133;56.002;37.208;2023-07-24T00:22:39;98406.80;;;12.57;81.17
75549;BME280;64133;56.002;37.208;2023-07-24T00:27:45;98411.25;;;12.56;81.20
75549;BME280;64133;56.002;37.208;2023-07-24T00:32:49;98410.11;;;12.55;81.36
75549;BME280;64133;56.002;37.208;2023-07-24T00:37:54;98408.12;;;12.57;81.39
75549;BME280;64133;56.002;37.208;2023-07-24T00:42:59;98402.68;;;12.54;81.50
75549;BME280;64133;56.002;37.208;2023-07-24T00:48:04;98399.36;;;12.52;81.41
75549;BME280;64133;56.002;37.208;2023-07-24T00:53:09;98407.95;;;12.50;81.69
75549;BME280;64133;56.002;37.208;2023-07-24T00:58:14;98395.73;;;12.45;81.60
75549;BME280;64133;56.002;37.208;2023-07-24T01:03:18;98394.39;;;12.41;81.68
75549;BME280;64133;56.002;37.208;2023-07-24T01:08:23;98401.96;;;12.40;81.71
75549;BME280;64133;56.002;37.208;2023-07-24T01:13:28;98395.01;;;12.31;81.82
75549;BME280;64133;56.002;37.208;2023-07-24T01:18:33;98387.27;;;12.33;81.85
75549;BME280;64133;56.002;37.208;2023-07-24T01:23:44;98391.39;;;12.40;81.82
75549;BME280;64133;56.002;37.208;2023-07-24T01:28:47;98385.28;;;12.36;81.73
75549;BME280;64133;56.002;37.208;2023-07-24T01:33:52;98384.33;;;12.41;81.71
75549;BME280;64133;56.002;37.208;2023-07-24T01:38:57;98381.81;;;12.35;81.72
75549;BME280;64133;56.002;37.208;2023-07-24T01:44:01;98381.31;;;12.36;81.73
75549;BME280;64133;56.002;37.208;2023-07-24T01:49:06;98394.87;;;12.32;81.75
75549;BME280;64133;56.002;37.208;2023-07-24T01:54:11;98396.37;;;12.43;81.47
75549;BME280;64133;56.002;37.208;2023-07-24T01:59:15;98394.38;;;12.33;81.63
75549;BME280;64133;56.002;37.208;2023-07-24T02:04:20;98380.49;;;12.35;81.48
75549;BME280;64133;56.002;37.208;2023-07-24T02:09:25;98389.28;;;12.48;81.19
75549;BME280;64133;56.002;37.208;2023-07-24T02:14:30;98387.95;;;12.44;81.09
75549;BME280;64133;56.002;37.208;2023-07-24T02:19:35;98395.23;;;12.58;80.97
75549;BME280;64133;56.002;37.208;2023-07-24T02:24:39;98386.69;;;12.68;80.50
75549;BME280;64133;56.002;37.208;2023-07-24T02:29:44;98378.09;;;12.74;80.09
75549;BME280;64133;56.002;37.208;2023-07-24T02:34:49;98389.00;;;12.88;79.84
75549;BME280;64133;56.002;37.208;2023-07-24T02:39:54;98379.58;;;13.05;79.34
75549;BME280;64133;56.002;37.208;2023-07-24T02:44:59;98375.97;;;13.11;79.02
75549;BME280;64133;56.002;37.208;2023-07-24T02:50:04;98379.94;;;13.23;78.59
75549;BME280;64133;56.002;37.208;2023-07-24T02:55:09;98380.10;;;13.38;77.78
75549;BME280;64133;56.002;37.208;2023-07-24T03:00:15;98377.58;;;13.56;77.32
75549;BME280;64133;56.002;37.208;2023-07-24T03:05:20;98390.28;;;13.69;77.14
75549;BME280;64133;56.002;37.208;2023-07-24T03:10:24;98389.97;;;13.64;76.94
75549;BME280;64133;56.002;37.208;2023-07-24T03:15:29;98392.30;;;13.63;76.74
75549;BME280;64133;56.002;37.208;2023-07-24T03:20:34;98391.30;;;13.60;76.56
75549;BME280;64133;56.002;37.208;2023-07-24T03:25:39;98400.87;;;13.65;76.61
75549;BME280;64133;56.002;37.208;2023-07-24T03:30:43;98402.06;;;13.63;76.61
75549;BME280;64133;56.002;37.208;2023-07-24T03:35:48;98399.72;;;13.72;76.24
75549;BME280;64133;56.002;37.208;2023-07-24T03:40:53;98391.03;;;13.98;75.71
75549;BME280;64133;56.002;37.208;2023-07-24T03:45:58;98386.67;;;14.05;75.14
75549;BME280;64133;56.002;37.208;2023-07-24T03:51:02;98389.88;;;13.89;75.45
75549;BME280;64133;56.002;37.208;2023-07-24T03:56:07;98394.19;;;13.94;75.53
75549;BME280;64133;56.002;37.208;2023-07-24T04:01:14;98401.59;;;14.06;75.49
75549;BME280;64133;56.002;37.208;2023-07-24T04:06:19;98408.29;;;14.25;75.07
75549;BME280;64133;56.002;37.208;2023-07-24T04:11:24;98409.98;;;14.14;75.07
75549;BME280;64133;56.002;37.208;2023-07-24T04:16:29;98404.27;;;14.38;75.09
75549;BME280;64133;56.002;37.208;2023-07-24T04:21:33;98399.77;;;14.73;74.65
75549;BME280;64133;56.002;37.208;2023-07-24T04:26:38;98404.88;;;14.44;74.49
75549;BME280;64133;56.002;37.208;2023-07-24T04:31:47;98400.91;;;14.44;74.83
75549;BME280;64133;56.002;37.208;2023-07-24T04:36:51;98394.27;;;14.52;74.52
75549;BME280;64133;56.002;37.208;2023-07-24T04:41:56;98397.70;;;14.83;74.47
75549;BME280;64133;56.002;37.208;2023-07-24T04:47:01;98393.73;;;14.83;73.81
75549;BME280;64133;56.002;37.208;2023-07-24T04:52:06;98398.39;;;14.81;74.13
75549;BME280;64133;56.002;37.208;2023-07-24T04:57:11;98393.33;;;14.95;73.74
75549;BME280;64133;56.002;37.208;2023-07-24T05:02:16;98386.21;;;15.33;73.20
75549;BME280;64133;56.002;37.208;2023-07-24T05:07:21;98392.43;;;15.59;72.48
75549;BME280;64133;56.002;37.208;2023-07-24T05:12:25;98386.95;;;15.75;71.65
75549;BME280;64133;56.002;37.208;2023-07-24T05:17:30;98388.16;;;16.02;70.91
75549;BME280;64133;56.002;37.208;2023-07-24T05:22:35;98385.82;;;16.03;70.78
75549;BME280;64133;56.002;37.208;2023-07-24T05:27:40;98380.52;;;15.74;71.21
75549;BME280;64133;56.002;37.208;2023-07-24T05:33:09;98386.00;;;15.87;70.70
75549;BME280;64133;56.002;37.208;2023-07-24T05:38:17;98391.36;;;15.83;70.93
75549;BME280;64133;56.002;37.208;2023-07-24T05:43:27;98383.13;;;16.18;69.94
75549;BME280;64133;56.002;37.208;2023-07-24T05:48:32;98377.87;;;16.14;70.08
75549;BME280;64133;56.002;37.208;2023-07-24T05:53:37;98387.80;;;15.91;70.09
75549;BME280;64133;56.002;37.208;2023-07-24T06:04:03;98383.75;;;15.80;70.92
75549;BME280;64133;56.002;37.208;2023-07-24T06:09:11;98390.31;;;15.73;71.53
75549;BME280;64133;56.002;37.208;2023-07-24T06:14:16;98389.85;;;15.51;72.19
75549;BME280;64133;56.002;37.208;2023-07-24T06:19:21;98384.23;;;15.50;71.78
75549;BME280;64133;56.002;37.208;2023-07-24T06:24:25;98392.03;;;15.66;71.30
75549;BME280;64133;56.002;37.208;2023-07-24T06:29:41;98393.55;;;15.79;71.01
75549;BME280;64133;56.002;37.208;2023-07-24T06:35:02;98394.76;;;15.77;71.31
75549;BME280;64133;56.002;37.208;2023-07-24T06:40:17;98387.28;;;15.91;71.26
75549;BME280;64133;56.002;37.208;2023-07-24T06:45:35;98388.09;;;16.32;70.68
75549;BME280;64133;56.002;37.208;2023-07-24T06:50:59;98390.59;;;16.33;70.68
75549;BME280;64133;56.002;37.208;2023-07-24T07:09:50;98388.05;;;17.15;69.57
75549;BME280;64133;56.002;37.208;2023-07-24T07:14:55;98376.13;;;16.72;70.58
75549;BME280;64133;56.002;37.208;2023-07-24T07:20:04;98382.31;;;16.79;71.08
75549;BME280;64133;56.002;37.208;2023-07-24T07:25:09;98377.92;;;16.72;71.51
75549;BME280;64133;56.002;37.208;2023-07-24T07:30:25;98371.93;;;16.95;71.32
75549;BME280;64133;56.002;37.208;2023-07-24T07:35:30;98369.52;;;17.11;70.33
75549;BME280;64133;56.002;37.208;2023-07-24T07:40:37;98370.60;;;16.95;69.56
75549;BME280;64133;56.002;37.208;2023-07-24T07:45:43;98370.73;;;16.98;68.89
75549;BME280;64133;56.002;37.208;2023-07-24T07:50:52;98379.41;;;16.96;68.22
75549;BME280;64133;56.002;37.208;2023-07-24T07:55:59;98374.33;;;16.79;68.50
75549;BME280;64133;56.002;37.208;2023-07-24T08:01:06;98358.84;;;16.57;68.46
75549;BME280;64133;56.002;37.208;2023-07-24T08:06:11;98373.66;;;16.67;69.28
75549;BME280;64133;56.002;37.208;2023-07-24T08:11:19;98360.73;;;16.89;69.87
75549;BME280;64133;56.002;37.208;2023-07-24T08:16:33;98365.73;;;16.99;69.47
75549;BME280;64133;56.002;37.208;2023-07-24T08:22:23;98359.68;;;16.69;70.41
75549;BME280;64133;56.002;37.208;2023-07-24T08:27:41;98366.98;;;16.45;71.45
75549;BME280;64133;56.002;37.208;2023-07-24T08:32:58;98365.23;;;16.42;71.78
75549;BME280;64133;56.002;37.208;2023-07-24T08:38:03;98372.61;;;16.36;71.89
75549;BME280;64133;56.002;37.208;2023-07-24T08:43:10;98362.28;;;16.26;72.51
75549;BME280;64133;56.002;37.208;2023-07-24T08:48:13;98364.22;;;16.17;73.14
75549;BME280;64133;56.002;37.208;2023-07-24T08:53:33;98361.11;;;16.14;74.23
75549;BME280;64133;56.002;37.208;2023-07-24T09:04:00;98345.30;;;16.16;74.82
75549;BME280;64133;56.002;37.208;2023-07-24T09:09:13;98343.52;;;16.13;74.98
75549;BME280;64133;56.002;37.208;2023-07-24T09:19:54;98328.97;;;16.19;75.03
75549;BME280;64133;56.002;37.208;2023-07-24T09:24:55;98321.48;;;16.33;74.95
75549;BME280;64133;56.002;37.208;2023-07-24T09:30:11;98278.08;;;16.37;74.41
75549;BME280;64133;56.002;37.208;2023-07-24T09:35:19;98288.89;;;16.68;74.77
75549;BME280;64133;56.002;37.208;2023-07-24T09:40:26;98284.83;;;16.61;74.68
75549;BME280;64133;56.002;37.208;2023-07-24T09:45:39;98275.71;;;16.49;75.20
75549;BME280;64133;56.002;37.208;2023-07-24T09:50:54;98274.30;;;16.10;75.94
75549;BME280;64133;56.002;37.208;2023-07-24T09:56:01;98262.83;;;16.46;76.25
75549;BME280;64133;56.002;37.208;2023-07-24T10:01:05;98252.35;;;16.23;76.26
75549;BME280;64133;56.002;37.208;2023-07-24T10:06:09;98251.56;;;15.86;78.07
75549;BME280;64133;56.002;37.208;2023-07-24T10:11:15;98239.15;;;15.72;78.23
75549;BME280;64133;56.002;37.208;2023-07-24T10:16:44;98232.75;;;15.62;78.85
75549;BME280;64133;56.002;37.208;2023-07-24T10:21:51;98232.37;;;15.54;78.92
75549;BME280;64133;56.002;37.208;2023-07-24T10:26:57;98226.50;;;15.44;78.87
75549;BME280;64133;56.002;37.208;2023-07-24T10:32:18;98229.51;;;15.16;79.51
75549;BME280;64133;56.002;37.208;2023-07-24T10:37:36;98210.33;;;14.95;80.37
75549;BME280;64133;56.002;37.208;2023-07-24T10:42:48;98225.73;;;14.80;81.36
75549;BME280;64133;56.002;37.208;2023-07-24T10:47:53;98227.05;;;14.62;81.79
75549;BME280;64133;56.002;37.208;2023-07-24T10:52:58;98217.02;;;14.53;82.03
75549;BME280;64133;56.002;37.208;2023-07-24T10:58:03;98207.39;;;14.56;81.77
75549;BME280;64133;56.002;37.208;2023-07-24T11:03:10;98206.61;;;14.47;82.15
75549;BME280;64133;56.002;37.208;2023-07-24T11:08:18;98206.83;;;14.42;82.72
75549;BME280;64133;56.002;37.208;2023-07-24T11:13:53;98197.55;;;14.42;83.25
75549;BME280;64133;56.002;37.208;2023-07-24T11:19:25;98197.45;;;14.54;83.41
75549;BME280;64133;56.002;37.208;2023-07-24T11:24:29;98188.18;;;14.54;83.67
75549;BME280;64133;56.002;37.208;2023-07-24T11:29:35;98187.79;;;14.61;83.81
75549;BME280;64133;56.002;37.208;2023-07-24T11:41:05;98167.16;;;15.01;83.49
75549;BME280;64133;56.002;37.208;2023-07-24T11:46:26;98166.66;;;14.87;83.53
75549;BME280;64133;56.002;37.208;2023-07-24T11:51:30;98159.52;;;15.17;83.52
75549;BME280;64133;56.002;37.208;2023-07-24T11:57:19;98148.45;;;15.39;82.77
75549;BME280;64133;56.002;37.208;2023-07-24T12:08:11;98136.66;;;15.52;82.91
75549;BME280;64133;56.002;37.208;2023-07-24T12:13:20;98115.17;;;15.72;82.45
75549;BME280;64133;56.002;37.208;2023-07-24T12:18:24;98116.98;;;15.93;82.11
75549;BME280;64133;56.002;37.208;2023-07-24T12:23:34;98109.59;;;15.78;82.27
75549;BME280;64133;56.002;37.208;2023-07-24T12:40:55;98115.16;;;15.83;82.12
75549;BME280;64133;56.002;37.208;2023-07-24T12:46:05;98119.83;;;15.70;82.54
75549;BME280;64133;56.002;37.208;2023-07-24T12:51:16;98105.30;;;15.77;82.43
75549;BME280;64133;56.002;37.208;2023-07-24T13:01:50;98092.80;;;15.56;82.61
75549;BME280;64133;56.002;37.208;2023-07-24T13:06:58;98108.78;;;15.63;82.88
75549;BME280;64133;56.002;37.208;2023-07-24T13:12:04;98094.92;;;15.82;82.55
75549;BME280;64133;56.002;37.208;2023-07-24T13:17:09;98095.25;;;15.94;82.23
75549;BME280;64133;56.002;37.208;2023-07-24T13:22:14;98053.43;;;15.92;81.84
75549;BME280;64133;56.002;37.208;2023-07-24T13:27:27;98087.08;;;16.23;81.39
75549;BME280;64133;56.002;37.208;2023-07-24T13:38:17;98020.19;;;15.74;81.71
75549;BME280;64133;56.002;37.208;2023-07-24T13:43:22;98085.10;;;15.93;81.78
75549;BME280;64133;56.002;37.208;2023-07-24T13:48:34;98088.66;;;15.79;82.46
75549;BME280;64133;56.002;37.208;2023-07-24T16:11:00;98013.84;;;20.43;65.79
75549;BME280;64133;56.002;37.208;2023-07-24T18:30:44;98071.92;;;16.17;79.57
75549;BME280;64133;56.002;37.208;2023-07-24T18:48:07;98051.41;;;16.22;79.93
75549;BME280;64133;56.002;37.208;2023-07-24T19:10:38;98068.92;;;15.99;80.11
75549;BME280;64133;56.002;37.208;2023-07-24T19:15:51;98060.15;;;15.66;80.33
75549;BME280;64133;56.002;37.208;2023-07-24T19:21:00;98056.08;;;15.49;81.32
75549;BME280;64133;56.002;37.208;2023-07-24T19:26:02;98065.08;;;15.58;81.26
75549;BME280;64133;56.002;37.208;2023-07-24T19:31:07;98010.45;;;15.17;81.39
75549;BME280;64133;56.002;37.208;2023-07-24T19:41:52;98065.09;;;15.69;81.50
75549;BME280;64133;56.002;37.208;2023-07-24T19:46:58;98057.02;;;15.63;81.33
75549;BME280;64133;56.002;37.208;2023-07-24T19:52:04;98053.39;;;15.74;81.36
75549;BME280;64133;56.002;37.208;2023-07-24T19:57:10;98040.02;;;15.57;81.23
75549;BME280;64133;56.002;37.208;2023-07-24T20:07:45;98028.61;;;15.46;81.64
75549;BME280;64133;56.002;37.208;2023-07-24T20:12:55;98035.67;;;15.39;81.79
75549;BME280;64133;56.002;37.208;2023-07-24T20:17:57;98030.17;;;15.29;81.88
75549;BME280;64133;56.002;37.208;2023-07-24T20:23:04;98035.11;;;15.32;82.26
75549;BME280;64133;56.002;37.208;2023-07-24T20:28:21;98027.44;;;15.23;82.25
75549;BME280;64133;56.002;37.208;2023-07-24T20:34:06;98014.80;;;15.14;82.22
75549;BME280;64133;56.002;37.208;2023-07-24T20:39:27;97982.58;;;14.96;82.10
75549;BME280;64133;56.002;37.208;2023-07-24T20:44:35;98033.90;;;15.24;82.13
75549;BME280;64133;56.002;37.208;2023-07-24T20:49:41;98026.73;;;15.14;82.19
75549;BME280;64133;56.002;37.208;2023-07-24T20:54:46;98025.04;;;15.06;82.41
75549;BME280;64133;56.002;37.208;2023-07-24T20:59:58;98022.19;;;15.08;82.34
75549;BME280;64133;56.002;37.208;2023-07-24T21:10:41;98022.30;;;15.11;82.38
75549;BME280;64133;56.002;37.208;2023-07-24T21:15:46;98027.45;;;14.87;82.72
75549;BME280;64133;56.002;37.208;2023-07-24T21:20:51;98033.67;;;14.79;83.03
75549;BME280;64133;56.002;37.208;2023-07-24T21:25:56;98028.26;;;14.76;83.36
75549;BME280;64133;56.002;37.208;2023-07-24T21:32:39;98025.31;;;14.71;83.62
75549;BME280;64133;56.002;37.208;2023-07-24T21:37:49;98031.62;;;14.70;83.55
75549;BME280;64133;56.002;37.208;2023-07-24T21:42:54;98039.36;;;14.61;83.62
75549;BME280;64133;56.002;37.208;2023-07-24T21:47:59;98033.46;;;14.70;83.46
75549;BME280;64133;56.002;37.208;2023-07-24T21:53:08;98032.03;;;14.78;83.70
75549;BME280;64133;56.002;37.208;2023-07-24T22:03:30;98044.30;;;14.64;83.26
75549;BME280;64133;56.002;37.208;2023-07-24T22:08:36;98035.75;;;14.58;83.75
75549;BME280;64133;56.002;37.208;2023-07-24T22:13:46;98036.16;;;14.66;83.82
75549;BME280;64133;56.002;37.208;2023-07-24T22:19:01;98030.69;;;14.67;83.70
75549;BME280;64133;56.002;37.208;2023-07-24T22:29:40;98016.47;;;14.49;83.78
75549;BME280;64133;56.002;37.208;2023-07-24T22:34:48;98000.41;;;14.32;83.92
75549;BME280;64133;56.002;37.208;2023-07-24T22:40:09;98006.31;;;14.38;84.07
75549;BME280;64133;56.002;37.208;2023-07-24T22:45:20;97997.69;;;14.25;84.02
75549;BME280;64133;56.002;37.208;2023-07-24T22:50:37;97997.83;;;14.28;84.18
75549;BME280;64133;56.002;37.208;2023-07-24T22:55:47;97994.50;;;14.15;83.83
75549;BME280;64133;56.002;37.208;2023-07-24T23:06:16;97996.13;;;14.31;83.91
75549;BME280;64133;56.002;37.208;2023-07-24T23:16:46;97988.98;;;13.87;85.14
75549;BME280;64133;56.002;37.208;2023-07-24T23:28:08;97979.65;;;13.57;86.38
75549;BME280;64133;56.002;37.208;2023-07-24T23:38:35;97980.81;;;13.59;87.24
75549;BME280;64133;56.002;37.208;2023-07-24T23:55:24;97973.97;;;13.65;87.12
